createdAt,value
2018-12-07T00:01:44.512Z,89.99
2018-12-07T00:07:47.849Z,89.06
2018-12-07T00:13:51.184Z,89.82
2018-12-07T00:19:54.526Z,89.94
2018-12-07T00:25:57.860Z,90.03
2018-12-07T00:32:01.223Z,89.55
2018-12-07T00:38:05.229Z,90.23
2018-12-07T00:44:08.702Z,89.70
2018-12-07T00:50:12.025Z,90.14
2018-12-07T00:56:15.355Z,91.25
2018-12-07T01:02:18.681Z,92.11
2018-12-07T01:08:22.032Z,93.23
2018-12-07T01:14:25.367Z,93.09
2018-12-07T01:20:28.710Z,93.06
2018-12-07T01:26:48.746Z,92.64
2018-12-07T01:32:52.088Z,92.27
2018-12-07T01:38:55.417Z,92.07
2018-12-07T01:44:58.748Z,91.48
2018-12-07T01:51:02.098Z,91.09
2018-12-07T01:57:05.459Z,90.61
2018-12-07T02:03:08.802Z,91.37
2018-12-07T02:09:12.109Z,91.27
2018-12-07T02:15:15.468Z,90.88
2018-12-07T02:21:18.775Z,91.32
2018-12-07T02:27:22.098Z,90.64
2018-12-07T02:33:25.461Z,90.30
2018-12-07T02:39:28.790Z,91.76
2018-12-07T02:45:32.108Z,92.87
2018-12-07T02:51:35.448Z,92.88
2018-12-07T02:57:38.773Z,92.93
2018-12-07T03:03:42.100Z,93.21
2018-12-07T03:09:45.414Z,93.38
2018-12-07T03:15:48.747Z,93.03
2018-12-07T03:21:52.078Z,93.18
2018-12-07T03:27:55.399Z,93.22
2018-12-07T03:33:58.734Z,93.19
2018-12-07T03:40:02.129Z,94.14
2018-12-07T03:46:05.468Z,95.10
2018-12-07T03:52:08.786Z,95.59
2018-12-07T03:58:12.100Z,95.26
2018-12-07T04:04:15.417Z,95.69
2018-12-07T04:10:18.783Z,96.13
2018-12-07T04:16:22.095Z,96.79
2018-12-07T04:22:25.419Z,96.74
2018-12-07T04:28:28.738Z,97.16
2018-12-07T04:34:32.557Z,97.52
2018-12-07T04:40:35.872Z,97.72
2018-12-07T04:46:39.196Z,97.48
2018-12-07T04:52:42.513Z,96.85
2018-12-07T04:58:46.207Z,97.65
2018-12-07T05:04:49.669Z,97.12
2018-12-07T05:10:53.002Z,97.34
2018-12-07T05:16:56.313Z,97.45
2018-12-07T05:22:59.646Z,97.21
2018-12-07T05:29:02.972Z,96.12
2018-12-07T05:35:06.758Z,96.91
2018-12-07T05:41:10.097Z,96.22
2018-12-07T05:47:13.429Z,96.82
2018-12-07T05:53:18.200Z,96.40
2018-12-07T05:59:21.554Z,95.33
2018-12-07T06:05:24.866Z,95.65
2018-12-07T06:11:28.201Z,95.85
2018-12-07T06:17:31.511Z,95.67
2018-12-07T06:23:34.828Z,95.90
2018-12-07T06:29:38.167Z,96.76
2018-12-07T06:35:41.481Z,97.46
2018-12-07T06:41:44.801Z,98.15
2018-12-07T06:47:48.129Z,98.11
2018-12-07T06:53:51.441Z,98.18
2018-12-07T06:59:54.773Z,99.31
2018-12-07T07:05:58.081Z,100.00
2018-12-07T07:12:01.385Z,99.54
2018-12-07T07:18:04.743Z,99.76
2018-12-07T07:24:08.071Z,98.90
2018-12-07T07:30:14.323Z,99.53
2018-12-07T07:36:17.644Z,98.75
2018-12-07T07:42:20.986Z,98.72
2018-12-07T07:48:24.310Z,97.88
2018-12-07T07:54:27.630Z,96.79
2018-12-07T08:00:31.007Z,97.62
2018-12-07T08:06:34.326Z,95.48
2018-12-07T08:12:37.704Z,94.15
2018-12-07T08:18:43.599Z,94.52
2018-12-07T08:24:46.989Z,93.21
2018-12-07T08:30:50.305Z,93.46
2018-12-07T08:36:53.612Z,92.05
2018-12-07T08:42:57.018Z,90.05
2018-12-07T08:49:00.333Z,90.53
2018-12-07T08:55:03.816Z,89.73
2018-12-07T09:01:07.157Z,89.37
2018-12-07T09:07:10.485Z,89.38
2018-12-07T09:13:13.794Z,89.39
2018-12-07T09:19:17.125Z,89.62
2018-12-07T09:25:20.446Z,88.86
2018-12-07T09:31:23.759Z,88.97
2018-12-07T09:37:28.858Z,89.13
2018-12-07T09:43:32.443Z,89.18
2018-12-07T09:49:35.789Z,88.37
2018-12-07T09:55:39.139Z,88.78
2018-12-07T10:01:42.454Z,89.72
2018-12-07T10:07:45.799Z,89.45
2018-12-07T10:13:49.126Z,88.35
2018-12-07T10:19:52.432Z,89.11
2018-12-07T10:25:55.750Z,88.24
2018-12-07T10:31:59.129Z,87.68
2018-12-07T10:38:02.453Z,87.58
2018-12-07T10:44:05.790Z,87.93
2018-12-07T10:50:09.172Z,87.01
2018-12-07T10:56:12.571Z,87.27
2018-12-07T11:02:21.250Z,87.25
2018-12-07T11:08:30.034Z,86.11
2018-12-07T11:14:38.824Z,87.75
2018-12-07T11:27:23.955Z,86.21
2018-12-07T11:39:57.632Z,87.03
2018-12-07T11:46:01.003Z,86.51
2018-12-07T11:52:04.362Z,86.13
2018-12-07T11:58:07.700Z,86.98
2018-12-07T12:04:11.055Z,87.13
2018-12-07T12:10:14.475Z,86.00
2018-12-07T12:16:17.810Z,85.51
2018-12-07T12:22:21.144Z,85.22
2018-12-07T12:28:24.478Z,84.15
2018-12-07T12:34:27.817Z,84.44
2018-12-07T12:40:31.153Z,85.03
2018-12-07T12:52:42.794Z,83.54
2018-12-07T12:58:46.147Z,84.48
2018-12-07T13:04:49.496Z,84.61
2018-12-07T13:10:52.831Z,84.79
2018-12-07T13:16:56.191Z,84.87
2018-12-07T13:22:59.555Z,84.77
2018-12-07T13:29:02.989Z,85.45
2018-12-07T13:35:06.332Z,85.34
2018-12-07T13:41:09.671Z,85.26
2018-12-07T13:47:13.556Z,85.60
2018-12-07T13:53:17.491Z,85.40
2018-12-07T13:59:21.090Z,84.66
2018-12-07T14:05:32.059Z,85.18
2018-12-07T14:11:30.061Z,85.39
2018-12-07T14:17:33.540Z,84.88
2018-12-07T14:23:37.008Z,85.80
2018-12-07T14:29:40.638Z,85.30
2018-12-07T14:35:44.283Z,84.96
2018-12-07T14:41:47.953Z,85.80
2018-12-07T14:47:51.568Z,83.81
2018-12-07T14:53:55.032Z,81.92
2018-12-07T14:59:58.441Z,82.97
2018-12-07T15:06:02.032Z,82.76
2018-12-07T15:12:05.663Z,82.69
2018-12-07T15:18:09.168Z,81.67
2018-12-07T15:24:12.781Z,82.19
2018-12-07T15:30:16.192Z,82.71
2018-12-07T15:36:19.612Z,82.50
2018-12-07T15:42:23.012Z,82.19
2018-12-07T15:48:26.374Z,81.83
2018-12-07T15:54:29.799Z,82.96
2018-12-07T16:00:33.267Z,82.81
2018-12-07T16:06:37.556Z,82.41
2018-12-07T16:12:41.478Z,82.58
2018-12-07T16:18:44.912Z,82.15
2018-12-07T16:24:48.382Z,81.71
2018-12-07T16:30:51.770Z,82.33
2018-12-07T16:36:55.198Z,82.36
2018-12-07T16:42:58.636Z,82.53
2018-12-07T16:49:02.395Z,81.44
2018-12-07T16:55:06.376Z,81.48
2018-12-07T17:01:10.040Z,82.21
2018-12-07T17:07:13.543Z,81.81
2018-12-07T17:13:17.026Z,82.08
2018-12-07T17:19:20.528Z,81.67
2018-12-07T17:25:24.100Z,82.18
2018-12-07T17:31:27.608Z,82.37
2018-12-07T17:37:31.067Z,82.30
2018-12-07T17:43:34.629Z,82.04
2018-12-07T17:49:38.284Z,82.68
2018-12-07T17:55:41.787Z,81.74
2018-12-07T18:01:45.183Z,82.01
2018-12-07T18:07:48.528Z,82.21
2018-12-07T18:13:51.863Z,83.65
2018-12-07T18:19:55.220Z,83.60
2018-12-07T18:25:58.677Z,84.33
2018-12-07T18:32:02.399Z,84.67
2018-12-07T18:38:05.900Z,84.37
2018-12-07T18:44:09.456Z,84.09
2018-12-07T18:50:13.171Z,83.68
2018-12-07T18:56:16.542Z,84.04
2018-12-07T19:02:20.041Z,83.50
2018-12-07T19:08:23.590Z,83.46
2018-12-07T19:14:27.266Z,84.70
2018-12-07T19:20:30.755Z,83.79
2018-12-07T19:26:34.216Z,83.82
2018-12-07T19:32:37.641Z,84.58
2018-12-07T19:38:40.980Z,84.18
2018-12-07T19:44:44.743Z,84.37
2018-12-07T19:50:48.165Z,85.02
2018-12-07T19:56:51.793Z,83.84
2018-12-07T20:02:55.261Z,83.40
2018-12-07T20:08:58.969Z,84.15
2018-12-07T20:15:02.665Z,85.47
2018-12-07T20:21:06.394Z,87.70
2018-12-07T20:27:09.976Z,87.66
2018-12-07T20:33:13.655Z,88.99
2018-12-07T20:39:17.080Z,89.39
2018-12-07T20:45:20.585Z,90.77
2018-12-07T20:51:26.212Z,92.74
2018-12-07T20:57:29.707Z,88.00
2018-12-07T21:04:13.267Z,88.09
2018-12-07T21:10:55.686Z,91.04
2018-12-07T21:17:07.179Z,87.56
2018-12-07T21:23:11.007Z,85.72
2018-12-07T21:29:14.527Z,85.98
2018-12-07T21:35:17.973Z,84.62
2018-12-07T21:41:21.435Z,83.46
2018-12-07T21:54:31.034Z,81.21
2018-12-07T22:00:34.514Z,81.52
2018-12-07T22:06:38.455Z,81.34
2018-12-07T22:12:41.905Z,81.65
2018-12-07T22:18:45.225Z,81.52
2018-12-07T22:24:48.589Z,79.83
2018-12-07T22:30:52.354Z,81.18
2018-12-07T22:36:55.883Z,81.30
2018-12-07T22:42:59.466Z,80.74
2018-12-07T22:49:02.917Z,79.47
2018-12-07T22:55:06.489Z,79.62
2018-12-07T23:01:09.804Z,79.72
2018-12-07T23:07:13.124Z,77.66
2018-12-07T23:13:16.465Z,76.88
2018-12-07T23:19:19.776Z,81.92
2018-12-07T23:25:23.099Z,84.66
2018-12-07T23:31:26.437Z,86.80
2018-12-07T23:37:29.764Z,87.21
2018-12-07T23:43:33.079Z,87.91
2018-12-07T23:49:36.407Z,87.23
2018-12-07T23:55:39.726Z,86.98
